sensor_id;sensor_type;location;lat;lon;timestamp;pressure;altitude;pressure_sealevel;temperature
68440;BMP180;55421;51.600;5.718;2022-08-18T00:02:05;225919.00;;;20.40
68440;BMP180;55421;51.600;5.718;2022-08-18T00:04:34;225931.80;;;20.40
68440;BMP180;55421;51.600;5.718;2022-08-18T00:07:11;225915.80;;;20.40
68440;BMP180;55421;51.600;5.718;2022-08-18T00:09:39;225936.59;;;20.40
68440;BMP180;55421;51.600;5.718;2022-08-18T00:12:15;225972.80;;;20.50
68440;BMP180;55421;51.600;5.718;2022-08-18T00:14:43;225965.20;;;20.50
68440;BMP180;55421;51.600;5.718;2022-08-18T00:17:11;225994.80;;;20.50
68440;BMP180;55421;51.600;5.718;2022-08-18T00:19:38;225991.80;;;20.50
68440;BMP180;55421;51.600;5.718;2022-08-18T00:22:04;225984.20;;;20.50
68440;BMP180;55421;51.600;5.718;2022-08-18T00:24:31;225977.20;;;20.50
68440;BMP180;55421;51.600;5.718;2022-08-18T00:26:57;225976.41;;;20.50
68440;BMP180;55421;51.600;5.718;2022-08-18T00:29:24;225964.80;;;20.50
68440;BMP180;55421;51.600;5.718;2022-08-18T00:31:50;225993.20;;;20.52
68440;BMP180;55421;51.600;5.718;2022-08-18T00:34:17;225971.59;;;20.50
68440;BMP180;55421;51.600;5.718;2022-08-18T00:36:43;225970.80;;;20.50
68440;BMP180;55421;51.600;5.718;2022-08-18T00:39:09;225954.20;;;20.50
68440;BMP180;55421;51.600;5.718;2022-08-18T00:41:36;225931.80;;;20.40
68440;BMP180;55421;51.600;5.718;2022-08-18T00:44:02;225912.59;;;20.40
68440;BMP180;55421;51.600;5.718;2022-08-18T00:46:34;225923.80;;;20.40
68440;BMP180;55421;51.600;5.718;2022-08-18T00:49:02;225928.59;;;20.40
68440;BMP180;55421;51.600;5.718;2022-08-18T00:51:42;225930.20;;;20.40
68440;BMP180;55421;51.600;5.718;2022-08-18T00:54:16;225935.00;;;20.40
68440;BMP180;55421;51.600;5.718;2022-08-18T00:56:48;225939.80;;;20.46
68440;BMP180;55421;51.600;5.718;2022-08-18T00:59:29;225963.00;;;20.50
68440;BMP180;55421;51.600;5.718;2022-08-18T01:02:01;225970.00;;;20.50
68440;BMP180;55421;51.600;5.718;2022-08-18T01:07:49;226013.00;;;20.60
68440;BMP180;55421;51.600;5.718;2022-08-18T01:10:20;226011.41;;;20.60
68440;BMP180;55421;51.600;5.718;2022-08-18T01:12:52;225993.20;;;20.50
68440;BMP180;55421;51.600;5.718;2022-08-18T01:15:22;225994.80;;;20.52
68440;BMP180;55421;51.600;5.718;2022-08-18T01:17:49;225972.80;;;20.50
68440;BMP180;55421;51.600;5.718;2022-08-18T01:21:03;225952.80;;;20.50
68440;BMP180;55421;51.600;5.718;2022-08-18T01:23:52;225951.20;;;20.50
68440;BMP180;55421;51.600;5.718;2022-08-18T01:26:21;225947.41;;;20.48
68440;BMP180;55421;51.600;5.718;2022-08-18T01:28:49;225936.20;;;20.44
68440;BMP180;55421;51.600;5.718;2022-08-18T01:31:40;225904.59;;;20.40
68440;BMP180;55421;51.600;5.718;2022-08-18T01:34:10;225867.00;;;20.30
68440;BMP180;55421;51.600;5.718;2022-08-18T01:36:39;225849.00;;;20.30
68440;BMP180;55421;51.600;5.718;2022-08-18T01:39:11;225831.41;;;20.30
68440;BMP180;55421;51.600;5.718;2022-08-18T01:41:39;225822.00;;;20.20
68440;BMP180;55421;51.600;5.718;2022-08-18T01:44:06;225820.59;;;20.20
68440;BMP180;55421;51.600;5.718;2022-08-18T01:46:39;225826.20;;;20.24
68440;BMP180;55421;51.600;5.718;2022-08-18T01:49:09;225815.00;;;20.20
68440;BMP180;55421;51.600;5.718;2022-08-18T01:51:35;225820.59;;;20.20
68440;BMP180;55421;51.600;5.718;2022-08-18T01:54:09;225842.59;;;20.30
68440;BMP180;55421;51.600;5.718;2022-08-18T01:56:37;225871.41;;;20.30
68440;BMP180;55421;51.600;5.718;2022-08-18T01:59:03;225893.41;;;20.40
68440;BMP180;55421;51.600;5.718;2022-08-18T02:01:37;225895.00;;;20.40
68440;BMP180;55421;51.600;5.718;2022-08-18T02:04:05;225895.00;;;20.40
68440;BMP180;55421;51.600;5.718;2022-08-18T02:06:34;225898.20;;;20.40
68440;BMP180;55421;51.600;5.718;2022-08-18T02:09:00;225885.41;;;20.36
68440;BMP180;55421;51.600;5.718;2022-08-18T02:11:27;225843.80;;;20.30
68440;BMP180;55421;51.600;5.718;2022-08-18T02:13:53;225798.80;;;20.20
68440;BMP180;55421;51.600;5.718;2022-08-18T02:16:19;225773.20;;;20.10
68440;BMP180;55421;51.600;5.718;2022-08-18T02:18:46;225740.41;;;20.10
68440;BMP180;55421;51.600;5.718;2022-08-18T02:21:16;225700.59;;;20.00
68440;BMP180;55421;51.600;5.718;2022-08-18T02:23:44;225673.41;;;20.00
68440;BMP180;55421;51.600;5.718;2022-08-18T02:26:15;225656.59;;;20.00
68440;BMP180;55421;51.600;5.718;2022-08-18T02:28:43;225640.20;;;19.90
68440;BMP180;55421;51.600;5.718;2022-08-18T02:31:16;225648.00;;;19.90
68440;BMP180;55421;51.600;5.718;2022-08-18T02:33:44;225662.20;;;20.00
68440;BMP180;55421;51.600;5.718;2022-08-18T02:36:12;225663.80;;;20.00
68440;BMP180;55421;51.600;5.718;2022-08-18T02:38:39;225668.59;;;20.00
68440;BMP180;55421;51.600;5.718;2022-08-18T02:41:10;225675.00;;;20.00
68440;BMP180;55421;51.600;5.718;2022-08-18T02:43:37;225663.80;;;20.00
68440;BMP180;55421;51.600;5.718;2022-08-18T02:46:05;225659.41;;;20.00
68440;BMP180;55421;51.600;5.718;2022-08-18T02:48:33;225657.00;;;20.00
68440;BMP180;55421;51.600;5.718;2022-08-18T02:51:07;225665.41;;;20.00
68440;BMP180;55421;51.600;5.718;2022-08-18T02:53:35;225658.20;;;20.00
68440;BMP180;55421;51.600;5.718;2022-08-18T02:56:18;225652.80;;;19.92
68440;BMP180;55421;51.600;5.718;2022-08-18T02:58:57;225640.20;;;19.90
68440;BMP180;55421;51.600;5.718;2022-08-18T03:01:34;225631.20;;;19.90
68440;BMP180;55421;51.600;5.718;2022-08-18T03:04:06;225620.41;;;19.90
68440;BMP180;55421;51.600;5.718;2022-08-18T03:06:36;225607.59;;;19.90
68440;BMP180;55421;51.600;5.718;2022-08-18T03:09:05;225598.41;;;19.86
68440;BMP180;55421;51.600;5.718;2022-08-18T03:11:32;225582.41;;;19.80
68440;BMP180;55421;51.600;5.718;2022-08-18T03:13:58;225553.59;;;19.78
68440;BMP180;55421;51.600;5.718;2022-08-18T03:16:27;225529.20;;;19.70
68440;BMP180;55421;51.600;5.718;2022-08-18T03:18:56;225490.80;;;19.66
68440;BMP180;55421;51.600;5.718;2022-08-18T03:21:25;225462.20;;;19.60
68440;BMP180;55421;51.600;5.718;2022-08-18T03:23:54;225443.80;;;19.60
68440;BMP180;55421;51.600;5.718;2022-08-18T03:26:23;225420.80;;;19.52
68440;BMP180;55421;51.600;5.718;2022-08-18T03:28:53;225410.41;;;19.50
68440;BMP180;55421;51.600;5.718;2022-08-18T03:31:23;225403.59;;;19.50
68440;BMP180;55421;51.600;5.718;2022-08-18T03:33:52;225395.59;;;19.50
68440;BMP180;55421;51.600;5.718;2022-08-18T03:36:23;225366.80;;;19.44
68440;BMP180;55421;51.600;5.718;2022-08-18T03:38:51;225344.41;;;19.40
68440;BMP180;55421;51.600;5.718;2022-08-18T03:41:23;225299.80;;;19.30
68440;BMP180;55421;51.600;5.718;2022-08-18T03:43:51;225307.00;;;19.30
68440;BMP180;55421;51.600;5.718;2022-08-18T03:46:20;225285.41;;;19.30
68440;BMP180;55421;51.600;5.718;2022-08-18T03:48:49;225231.41;;;19.20
68440;BMP180;55421;51.600;5.718;2022-08-18T03:51:22;225180.59;;;19.10
68440;BMP180;55421;51.600;5.718;2022-08-18T03:53:52;225166.41;;;19.10
68440;BMP180;55421;51.600;5.718;2022-08-18T03:56:25;225164.80;;;19.10
68440;BMP180;55421;51.600;5.718;2022-08-18T03:58:56;225176.00;;;19.10
68440;BMP180;55421;51.600;5.718;2022-08-18T04:01:26;225205.80;;;19.16
68440;BMP180;55421;51.600;5.718;2022-08-18T04:04:01;225223.80;;;19.20
68440;BMP180;55421;51.600;5.718;2022-08-18T04:06:33;225242.59;;;19.20
68440;BMP180;55421;51.600;5.718;2022-08-18T04:09:04;225256.20;;;19.20
68440;BMP180;55421;51.600;5.718;2022-08-18T04:11:34;225279.00;;;19.30
68440;BMP180;55421;51.600;5.718;2022-08-18T04:14:01;225298.20;;;19.30
68440;BMP180;55421;51.600;5.718;2022-08-18T04:16:30;225311.41;;;19.30
68440;BMP180;55421;51.600;5.718;2022-08-18T04:19:04;225314.41;;;19.30
68440;BMP180;55421;51.600;5.718;2022-08-18T04:21:37;225326.00;;;19.40
68440;BMP180;55421;51.600;5.718;2022-08-18T04:24:06;225340.00;;;19.40
68440;BMP180;55421;51.600;5.718;2022-08-18T04:26:46;225348.41;;;19.40
68440;BMP180;55421;51.600;5.718;2022-08-18T04:29:16;225336.41;;;19.40
68440;BMP180;55421;51.600;5.718;2022-08-18T04:31:44;225330.59;;;19.40
68440;BMP180;55421;51.600;5.718;2022-08-18T04:34:11;225354.00;;;19.40
68440;BMP180;55421;51.600;5.718;2022-08-18T04:36:40;225392.80;;;19.50
68440;BMP180;55421;51.600;5.718;2022-08-18T04:39:10;225399.20;;;19.50
68440;BMP180;55421;51.600;5.718;2022-08-18T04:41:40;225403.20;;;19.50
68440;BMP180;55421;51.600;5.718;2022-08-18T04:44:08;225389.59;;;19.50
68440;BMP180;55421;51.600;5.718;2022-08-18T04:46:43;225362.00;;;19.40
68440;BMP180;55421;51.600;5.718;2022-08-18T04:49:10;225374.80;;;19.50
68440;BMP180;55421;51.600;5.718;2022-08-18T04:51:46;225373.20;;;19.48
68440;BMP180;55421;51.600;5.718;2022-08-18T04:54:34;225379.59;;;19.50
68440;BMP180;55421;51.600;5.718;2022-08-18T04:57:11;225399.20;;;19.50
68440;BMP180;55421;51.600;5.718;2022-08-18T04:59:41;225408.80;;;19.50
68440;BMP180;55421;51.600;5.718;2022-08-18T05:02:09;225416.00;;;19.50
68440;BMP180;55421;51.600;5.718;2022-08-18T05:04:38;225438.41;;;19.60
68440;BMP180;55421;51.600;5.718;2022-08-18T05:07:09;225462.59;;;19.60
68440;BMP180;55421;51.600;5.718;2022-08-18T05:09:38;225483.00;;;19.60
68440;BMP180;55421;51.600;5.718;2022-08-18T05:12:06;225498.80;;;19.68
68440;BMP180;55421;51.600;5.718;2022-08-18T05:14:33;225487.80;;;19.68
68440;BMP180;55421;51.600;5.718;2022-08-18T05:17:02;225479.80;;;19.60
68440;BMP180;55421;51.600;5.718;2022-08-18T05:19:30;225487.80;;;19.60
68440;BMP180;55421;51.600;5.718;2022-08-18T05:21:57;225505.20;;;19.70
68440;BMP180;55421;51.600;5.718;2022-08-18T05:24:27;225531.20;;;19.70
68440;BMP180;55421;51.600;5.718;2022-08-18T05:26:54;225552.00;;;19.80
68440;BMP180;55421;51.600;5.718;2022-08-18T05:29:22;225567.59;;;19.80
68440;BMP180;55421;51.600;5.718;2022-08-18T05:31:50;225581.20;;;19.80
68440;BMP180;55421;51.600;5.718;2022-08-18T05:34:20;225592.00;;;19.80
68440;BMP180;55421;51.600;5.718;2022-08-18T05:42:20;225632.80;;;19.90
68440;BMP180;55421;51.600;5.718;2022-08-18T05:44:50;225643.41;;;19.92
68440;BMP180;55421;51.600;5.718;2022-08-18T05:47:28;225655.41;;;20.00
68440;BMP180;55421;51.600;5.718;2022-08-18T05:50:04;225655.41;;;20.00
68440;BMP180;55421;51.600;5.718;2022-08-18T05:52:38;225656.59;;;20.00
68440;BMP180;55421;51.600;5.718;2022-08-18T05:55:18;225668.59;;;20.00
68440;BMP180;55421;51.600;5.718;2022-08-18T05:58:12;225671.80;;;20.00
68440;BMP180;55421;51.600;5.718;2022-08-18T06:00:49;225686.20;;;20.00
68440;BMP180;55421;51.600;5.718;2022-08-18T06:03:24;225711.80;;;20.02
68440;BMP180;55421;51.600;5.718;2022-08-18T06:06:00;225734.00;;;20.10
68440;BMP180;55421;51.600;5.718;2022-08-18T06:08:39;225725.59;;;20.10
68440;BMP180;55421;51.600;5.718;2022-08-18T06:11:07;225746.00;;;20.10
68440;BMP180;55421;51.600;5.718;2022-08-18T06:13:41;225767.20;;;20.10
68440;BMP180;55421;51.600;5.718;2022-08-18T06:19:56;225818.80;;;20.20
68440;BMP180;55421;51.600;5.718;2022-08-18T06:25:26;225843.80;;;20.30
68440;BMP180;55421;51.600;5.718;2022-08-18T06:28:15;225863.80;;;20.30
68440;BMP180;55421;51.600;5.718;2022-08-18T06:31:06;225857.00;;;20.30
68440;BMP180;55421;51.600;5.718;2022-08-18T06:33:55;225857.00;;;20.30
68440;BMP180;55421;51.600;5.718;2022-08-18T06:36:48;225867.80;;;20.30
68440;BMP180;55421;51.600;5.718;2022-08-18T06:39:38;225828.80;;;20.28
68440;BMP180;55421;51.600;5.718;2022-08-18T06:42:08;225802.41;;;20.20
68440;BMP180;55421;51.600;5.718;2022-08-18T06:44:53;225820.00;;;20.20
68440;BMP180;55421;51.600;5.718;2022-08-18T06:48:17;225837.80;;;20.30
68440;BMP180;55421;51.600;5.718;2022-08-18T06:50:51;225867.80;;;20.30
68440;BMP180;55421;51.600;5.718;2022-08-18T06:53:19;225871.80;;;20.30
68440;BMP180;55421;51.600;5.718;2022-08-18T06:55:49;225879.00;;;20.32
68440;BMP180;55421;51.600;5.718;2022-08-18T06:58:20;225882.20;;;20.34
68440;BMP180;55421;51.600;5.718;2022-08-18T07:03:22;225907.80;;;20.40
68440;BMP180;55421;51.600;5.718;2022-08-18T07:06:10;225967.20;;;20.50
68440;BMP180;55421;51.600;5.718;2022-08-18T07:08:52;226022.59;;;20.60
68440;BMP180;55421;51.600;5.718;2022-08-18T07:13:51;226201.59;;;20.90
68440;BMP180;55421;51.600;5.718;2022-08-18T07:16:28;226241.80;;;21.00
68440;BMP180;55421;51.600;5.718;2022-08-18T07:19:07;226251.00;;;21.00
68440;BMP180;55421;51.600;5.718;2022-08-18T07:21:37;226268.59;;;21.00
68440;BMP180;55421;51.600;5.718;2022-08-18T07:24:27;226307.00;;;21.10
68440;BMP180;55421;51.600;5.718;2022-08-18T07:27:09;226366.41;;;21.20
68440;BMP180;55421;51.600;5.718;2022-08-18T07:30:11;226388.41;;;21.24
68440;BMP180;55421;51.600;5.718;2022-08-18T07:32:47;226396.80;;;21.30
68440;BMP180;55421;51.600;5.718;2022-08-18T07:35:23;226432.00;;;21.30
68440;BMP180;55421;51.600;5.718;2022-08-18T07:37:59;226450.41;;;21.40
68440;BMP180;55421;51.600;5.718;2022-08-18T07:40:41;226497.80;;;21.40
68440;BMP180;55421;51.600;5.718;2022-08-18T07:43:22;226575.59;;;21.58
68440;BMP180;55421;51.600;5.718;2022-08-18T07:45:56;226605.59;;;21.60
68440;BMP180;55421;51.600;5.718;2022-08-18T07:48:32;226637.00;;;21.70
68440;BMP180;55421;51.600;5.718;2022-08-18T07:57:22;226733.80;;;21.88
68440;BMP180;55421;51.600;5.718;2022-08-18T08:00:04;226730.59;;;21.90
68440;BMP180;55421;51.600;5.718;2022-08-18T08:03:10;226729.00;;;21.88
68440;BMP180;55421;51.600;5.718;2022-08-18T08:06:00;226767.59;;;21.90
68440;BMP180;55421;51.600;5.718;2022-08-18T08:12:08;226830.20;;;22.00
68440;BMP180;55421;51.600;5.718;2022-08-18T08:14:44;226839.80;;;22.06
68440;BMP180;55421;51.600;5.718;2022-08-18T08:17:45;226807.80;;;22.00
68440;BMP180;55421;51.600;5.718;2022-08-18T08:20:29;226822.20;;;22.00
68440;BMP180;55421;51.600;5.718;2022-08-18T08:23:39;226817.41;;;22.00
68440;BMP180;55421;51.600;5.718;2022-08-18T08:32:14;226822.20;;;22.00
68440;BMP180;55421;51.600;5.718;2022-08-18T08:35:03;226846.20;;;22.10
68440;BMP180;55421;51.600;5.718;2022-08-18T08:38:14;226892.59;;;22.10
68440;BMP180;55421;51.600;5.718;2022-08-18T08:41:05;226953.20;;;22.20
68440;BMP180;55421;51.600;5.718;2022-08-18T08:43:44;227034.59;;;22.40
68440;BMP180;55421;51.600;5.718;2022-08-18T08:46:26;227043.00;;;22.40
68440;BMP180;55421;51.600;5.718;2022-08-18T08:49:12;227060.20;;;22.40
68440;BMP180;55421;51.600;5.718;2022-08-18T08:51:49;227073.80;;;22.48
68440;BMP180;55421;51.600;5.718;2022-08-18T08:54:29;227085.80;;;22.50
68440;BMP180;55421;51.600;5.718;2022-08-18T08:57:01;227089.00;;;22.50
68440;BMP180;55421;51.600;5.718;2022-08-18T08:59:29;227085.80;;;22.50
68440;BMP180;55421;51.600;5.718;2022-08-18T09:04:49;227092.20;;;22.50
68440;BMP180;55421;51.600;5.718;2022-08-18T09:13:02;227149.20;;;22.60
68440;BMP180;55421;51.600;5.718;2022-08-18T09:19:22;227236.00;;;22.74
68440;BMP180;55421;51.600;5.718;2022-08-18T09:22:00;227392.00;;;23.00
68440;BMP180;55421;51.600;5.718;2022-08-18T09:24:40;227578.80;;;23.36
68440;BMP180;55421;51.600;5.718;2022-08-18T09:29:58;227831.80;;;23.80
68440;BMP180;55421;51.600;5.718;2022-08-18T09:37:56;227787.00;;;23.70
68440;BMP180;55421;51.600;5.718;2022-08-18T09:41:08;227740.20;;;23.60
68440;BMP180;55421;51.600;5.718;2022-08-18T09:44:05;227812.20;;;23.80
68440;BMP180;55421;51.600;5.718;2022-08-18T09:51:56;227625.80;;;23.40
68440;BMP180;55421;51.600;5.718;2022-08-18T09:54:29;227559.59;;;23.30
68440;BMP180;55421;51.600;5.718;2022-08-18T10:02:09;227471.41;;;23.20
68440;BMP180;55421;51.600;5.718;2022-08-18T10:04:42;227497.80;;;23.20
68440;BMP180;55421;51.600;5.718;2022-08-18T10:07:37;227570.80;;;23.30
68440;BMP180;55421;51.600;5.718;2022-08-18T10:10:25;227707.41;;;23.58
68440;BMP180;55421;51.600;5.718;2022-08-18T10:21:23;228482.59;;;25.00
68440;BMP180;55421;51.600;5.718;2022-08-18T10:29:06;228378.41;;;24.80
68440;BMP180;55421;51.600;5.718;2022-08-18T10:34:50;228391.20;;;24.80
68440;BMP180;55421;51.600;5.718;2022-08-18T10:37:45;228415.59;;;24.80
68440;BMP180;55421;51.600;5.718;2022-08-18T10:40:18;228412.00;;;24.80
68440;BMP180;55421;51.600;5.718;2022-08-18T10:43:09;228382.00;;;24.80
68440;BMP180;55421;51.600;5.718;2022-08-18T10:45:46;228389.59;;;24.80
68440;BMP180;55421;51.600;5.718;2022-08-18T10:51:05;228365.20;;;24.70
68440;BMP180;55421;51.600;5.718;2022-08-18T10:53:50;228386.00;;;24.80
68440;BMP180;55421;51.600;5.718;2022-08-18T10:56:53;228421.20;;;24.80
68440;BMP180;55421;51.600;5.718;2022-08-18T11:05:25;228449.00;;;24.90
68440;BMP180;55421;51.600;5.718;2022-08-18T11:08:01;228429.80;;;24.90
68440;BMP180;55421;51.600;5.718;2022-08-18T11:13:31;228392.80;;;24.80
68440;BMP180;55421;51.600;5.718;2022-08-18T11:19:14;228400.41;;;24.80
68440;BMP180;55421;51.600;5.718;2022-08-18T11:21:46;228404.80;;;24.80
68440;BMP180;55421;51.600;5.718;2022-08-18T11:24:28;228461.80;;;24.92
68440;BMP180;55421;51.600;5.718;2022-08-18T11:27:05;228550.41;;;25.10
68440;BMP180;55421;51.600;5.718;2022-08-18T11:29:42;228576.80;;;25.10
68440;BMP180;55421;51.600;5.718;2022-08-18T11:32:31;228606.59;;;25.20
68440;BMP180;55421;51.600;5.718;2022-08-18T11:37:50;228612.59;;;25.20
68440;BMP180;55421;51.600;5.718;2022-08-18T11:45:51;228700.20;;;25.30
68440;BMP180;55421;51.600;5.718;2022-08-18T11:48:42;228816.00;;;25.54
68440;BMP180;55421;51.600;5.718;2022-08-18T11:54:16;229050.00;;;25.96
68440;BMP180;55421;51.600;5.718;2022-08-18T11:56:44;229116.41;;;26.10
68440;BMP180;55421;51.600;5.718;2022-08-18T12:02:00;229326.20;;;26.46
68440;BMP180;55421;51.600;5.718;2022-08-18T12:04:36;229428.80;;;26.60
68440;BMP180;55421;51.600;5.718;2022-08-18T12:07:24;229464.59;;;26.70
68440;BMP180;55421;51.600;5.718;2022-08-18T12:10:21;229482.20;;;26.70
68440;BMP180;55421;51.600;5.718;2022-08-18T12:12:51;229520.59;;;26.80
68440;BMP180;55421;51.600;5.718;2022-08-18T12:17:46;229522.20;;;26.80
68440;BMP180;55421;51.600;5.718;2022-08-18T12:20:14;229467.80;;;26.70
68440;BMP180;55421;51.600;5.718;2022-08-18T12:22:45;229411.20;;;26.60
68440;BMP180;55421;51.600;5.718;2022-08-18T12:25:15;229321.80;;;26.40
68440;BMP180;55421;51.600;5.718;2022-08-18T12:27:43;229338.41;;;26.50
68440;BMP180;55421;51.600;5.718;2022-08-18T12:30:11;229278.59;;;26.40
68440;BMP180;55421;51.600;5.718;2022-08-18T12:32:38;229284.59;;;26.40
68440;BMP180;55421;51.600;5.718;2022-08-18T12:35:07;229327.80;;;26.44
68440;BMP180;55421;51.600;5.718;2022-08-18T12:37:36;229374.41;;;26.50
68440;BMP180;55421;51.600;5.718;2022-08-18T12:40:04;229406.41;;;26.60
68440;BMP180;55421;51.600;5.718;2022-08-18T12:42:31;229417.59;;;26.60
68440;BMP180;55421;51.600;5.718;2022-08-18T12:44:57;229371.20;;;26.50
68440;BMP180;55421;51.600;5.718;2022-08-18T12:47:25;229339.41;;;26.48
68440;BMP180;55421;51.600;5.718;2022-08-18T12:49:52;229307.41;;;26.40
68440;BMP180;55421;51.600;5.718;2022-08-18T12:52:20;229319.00;;;26.40
68440;BMP180;55421;51.600;5.718;2022-08-18T12:54:47;229316.20;;;26.40
68440;BMP180;55421;51.600;5.718;2022-08-18T12:57:24;229285.80;;;26.40
68440;BMP180;55421;51.600;5.718;2022-08-18T12:59:51;229265.41;;;26.32
68440;BMP180;55421;51.600;5.718;2022-08-18T13:02:20;229244.41;;;26.30
68440;BMP180;55421;51.600;5.718;2022-08-18T13:04:47;229247.59;;;26.30
68440;BMP180;55421;51.600;5.718;2022-08-18T13:07:14;229248.59;;;26.30
68440;BMP180;55421;51.600;5.718;2022-08-18T13:09:43;229262.20;;;26.30
68440;BMP180;55421;51.600;5.718;2022-08-18T13:12:11;229252.20;;;26.30
68440;BMP180;55421;51.600;5.718;2022-08-18T13:14:38;229238.80;;;26.30
68440;BMP180;55421;51.600;5.718;2022-08-18T13:17:05;229257.41;;;26.30
68440;BMP180;55421;51.600;5.718;2022-08-18T13:19:31;229269.00;;;26.38
68440;BMP180;55421;51.600;5.718;2022-08-18T13:21:58;229272.20;;;26.40
68440;BMP180;55421;51.600;5.718;2022-08-18T13:24:24;229272.20;;;26.40
68440;BMP180;55421;51.600;5.718;2022-08-18T13:26:51;229349.41;;;26.50
68440;BMP180;55421;51.600;5.718;2022-08-18T13:29:17;229430.41;;;26.60
68440;BMP180;55421;51.600;5.718;2022-08-18T13:31:45;229477.41;;;26.70
68440;BMP180;55421;51.600;5.718;2022-08-18T13:34:12;229471.00;;;26.70
68440;BMP180;55421;51.600;5.718;2022-08-18T13:36:39;229474.20;;;26.70
68440;BMP180;55421;51.600;5.718;2022-08-18T13:39:17;229461.41;;;26.70
68440;BMP180;55421;51.600;5.718;2022-08-18T13:41:47;229456.59;;;26.70
68440;BMP180;55421;51.600;5.718;2022-08-18T13:44:15;229433.59;;;26.60
68440;BMP180;55421;51.600;5.718;2022-08-18T13:46:46;229425.59;;;26.60
68440;BMP180;55421;51.600;5.718;2022-08-18T13:49:18;229456.59;;;26.70
68440;BMP180;55421;51.600;5.718;2022-08-18T13:51:46;229544.59;;;26.82
68440;BMP180;55421;51.600;5.718;2022-08-18T13:54:22;229609.20;;;26.94
68440;BMP180;55421;51.600;5.718;2022-08-18T13:56:50;229671.80;;;27.04
68440;BMP180;55421;51.600;5.718;2022-08-18T13:59:20;229702.20;;;27.10
68440;BMP180;55421;51.600;5.718;2022-08-18T14:01:49;229733.80;;;27.16
68440;BMP180;55421;51.600;5.718;2022-08-18T14:04:17;229739.00;;;27.20
68440;BMP180;55421;51.600;5.718;2022-08-18T14:06:43;229755.00;;;27.20
68440;BMP180;55421;51.600;5.718;2022-08-18T14:09:10;229702.20;;;27.10
68440;BMP180;55421;51.600;5.718;2022-08-18T14:11:38;229692.59;;;27.10
68440;BMP180;55421;51.600;5.718;2022-08-18T14:14:05;229649.41;;;27.00
68440;BMP180;55421;51.600;5.718;2022-08-18T14:16:33;229600.80;;;26.90
68440;BMP180;55421;51.600;5.718;2022-08-18T14:19:00;229555.80;;;26.90
68440;BMP180;55421;51.600;5.718;2022-08-18T14:21:50;229563.80;;;26.90
68440;BMP180;55421;51.600;5.718;2022-08-18T14:24:37;229590.80;;;26.90
68440;BMP180;55421;51.600;5.718;2022-08-18T14:27:40;229589.20;;;26.90
68440;BMP180;55421;51.600;5.718;2022-08-18T14:30:11;229587.59;;;26.90
68440;BMP180;55421;51.600;5.718;2022-08-18T14:32:40;229578.20;;;26.90
68440;BMP180;55421;51.600;5.718;2022-08-18T14:35:10;229570.20;;;26.90
68440;BMP180;55421;51.600;5.718;2022-08-18T14:37:37;229560.59;;;26.90
68440;BMP180;55421;51.600;5.718;2022-08-18T14:40:06;229554.20;;;26.84
68440;BMP180;55421;51.600;5.718;2022-08-18T14:42:33;229555.80;;;26.90
68440;BMP180;55421;51.600;5.718;2022-08-18T14:45:00;229528.59;;;26.80
68440;BMP180;55421;51.600;5.718;2022-08-18T14:47:26;229496.59;;;26.70
68440;BMP180;55421;51.600;5.718;2022-08-18T14:49:54;229487.00;;;26.70
68440;BMP180;55421;51.600;5.718;2022-08-18T14:52:23;229477.41;;;26.70
68440;BMP180;55421;51.600;5.718;2022-08-18T14:54:50;229449.41;;;26.68
68440;BMP180;55421;51.600;5.718;2022-08-18T14:57:17;229433.59;;;26.60
68440;BMP180;55421;51.600;5.718;2022-08-18T14:59:44;229432.00;;;26.60
68440;BMP180;55421;51.600;5.718;2022-08-18T15:02:12;229416.00;;;26.60
68440;BMP180;55421;51.600;5.718;2022-08-18T15:04:42;229432.00;;;26.60
68440;BMP180;55421;51.600;5.718;2022-08-18T15:07:10;229436.80;;;26.60
68440;BMP180;55421;51.600;5.718;2022-08-18T15:09:36;229455.20;;;26.70
68440;BMP180;55421;51.600;5.718;2022-08-18T15:12:03;229480.59;;;26.70
68440;BMP180;55421;51.600;5.718;2022-08-18T15:14:31;229509.41;;;26.76
68440;BMP180;55421;51.600;5.718;2022-08-18T15:17:02;229549.41;;;26.82
68440;BMP180;55421;51.600;5.718;2022-08-18T15:19:29;229596.59;;;26.90
68440;BMP180;55421;51.600;5.718;2022-08-18T15:21:55;229651.00;;;27.00
68440;BMP180;55421;51.600;5.718;2022-08-18T15:24:41;229681.41;;;27.10
68440;BMP180;55421;51.600;5.718;2022-08-18T15:27:34;229732.20;;;27.14
68440;BMP180;55421;51.600;5.718;2022-08-18T15:30:12;229762.59;;;27.20
68440;BMP180;55421;51.600;5.718;2022-08-18T15:32:42;229763.00;;;27.20
68440;BMP180;55421;51.600;5.718;2022-08-18T15:35:12;229747.80;;;27.20
68440;BMP180;55421;51.600;5.718;2022-08-18T15:37:44;229749.00;;;27.20
68440;BMP180;55421;51.600;5.718;2022-08-18T15:40:17;229761.00;;;27.20
68440;BMP180;55421;51.600;5.718;2022-08-18T15:42:51;229779.80;;;27.22
68440;BMP180;55421;51.600;5.718;2022-08-18T15:45:23;229796.80;;;27.30
68440;BMP180;55421;51.600;5.718;2022-08-18T15:47:52;229819.59;;;27.30
68440;BMP180;55421;51.600;5.718;2022-08-18T15:50:20;229852.00;;;27.40
68440;BMP180;55421;51.600;5.718;2022-08-18T15:52:58;229879.41;;;27.40
68440;BMP180;55421;51.600;5.718;2022-08-18T15:55:27;229894.59;;;27.40
68440;BMP180;55421;51.600;5.718;2022-08-18T15:57:55;229900.59;;;27.40
68440;BMP180;55421;51.600;5.718;2022-08-18T16:00:24;229918.20;;;27.50
68440;BMP180;55421;51.600;5.718;2022-08-18T16:02:55;229909.80;;;27.48
68440;BMP180;55421;51.600;5.718;2022-08-18T16:05:31;229922.59;;;27.50
68440;BMP180;55421;51.600;5.718;2022-08-18T16:07:58;229884.20;;;27.40
68440;BMP180;55421;51.600;5.718;2022-08-18T16:10:30;229836.80;;;27.34
68440;BMP180;55421;51.600;5.718;2022-08-18T16:12:58;229803.59;;;27.30
68440;BMP180;55421;51.600;5.718;2022-08-18T16:15:27;229779.80;;;27.20
68440;BMP180;55421;51.600;5.718;2022-08-18T16:17:54;229767.00;;;27.20
68440;BMP180;55421;51.600;5.718;2022-08-18T16:20:22;229768.80;;;27.20
68440;BMP180;55421;51.600;5.718;2022-08-18T16:22:52;229761.41;;;27.20
68440;BMP180;55421;51.600;5.718;2022-08-18T16:25:19;229773.59;;;27.20
68440;BMP180;55421;51.600;5.718;2022-08-18T16:27:46;229756.59;;;27.20